Time;durP1;ratioP1;P1;durP2;ratioP2;P2;SDS_P1;SDS_P2;PMS_P1;PMS_P2;Temp;Humidity;BMP_temperature;BMP_pressure;BME280_temperature;BME280_humidity;BME280_pressure;Samples;Min_cycle;Max_cycle;Signal;HPM_P1;HPM_P2
2023/06/05 00:01:38;;;;;;;6.77;3.43;;;14.80;58.80;;;;;;4949920;28;20056;-78
2023/06/05 00:04:05;;;;;;;7.57;3.78;;;14.70;58.80;;;;;;4947786;28;20650;-79
2023/06/05 00:06:33;;;;;;;6.15;3.35;;;14.70;59.10;;;;;;4931571;28;20536;-80
2023/06/05 00:08:59;;;;;;;8.23;3.42;;;14.60;59.30;;;;;;4932015;28;20051;-78
2023/06/05 00:11:28;;;;;;;19.70;4.72;;;14.60;59.40;;;;;;4978578;28;20058;-80
2023/06/05 00:13:55;;;;;;;12.67;4.10;;;14.50;59.50;;;;;;4963185;28;20179;-80
2023/06/05 00:16:22;;;;;;;10.60;4.05;;;14.50;59.50;;;;;;4974187;28;20342;-79
2023/06/05 00:18:49;;;;;;;8.70;3.75;;;14.50;59.60;;;;;;4959383;28;20052;-79
2023/06/05 00:21:16;;;;;;;13.43;3.90;;;14.50;59.70;;;;;;4965762;28;20055;-79
2023/06/05 00:23:43;;;;;;;9.55;3.80;;;14.50;59.70;;;;;;4967855;28;20055;-79
2023/06/05 00:26:10;;;;;;;8.13;3.53;;;14.50;59.80;;;;;;4967649;28;20055;-79
2023/06/05 00:28:39;;;;;;;6.85;3.50;;;14.40;59.80;;;;;;4963577;28;20263;-78
2023/06/05 00:31:07;;;;;;;7.78;3.97;;;14.40;59.90;;;;;;4969208;28;20052;-78
2023/06/05 00:33:33;;;;;;;7.18;3.63;;;14.40;59.80;;;;;;4967258;28;20049;-79
2023/06/05 00:36:00;;;;;;;6.63;3.40;;;14.30;59.90;;;;;;4966940;28;20134;-78
2023/06/05 00:38:27;;;;;;;7.23;3.43;;;14.30;59.80;;;;;;4948493;28;20103;-79
2023/06/05 00:40:54;;;;;;;6.68;3.40;;;14.30;59.80;;;;;;4948304;28;20291;-78
2023/06/05 00:43:21;;;;;;;7.40;3.78;;;14.20;59.70;;;;;;4947887;28;20449;-78
2023/06/05 00:45:52;;;;;;;6.90;3.65;;;14.20;59.80;;;;;;4947963;28;20099;-78
2023/06/05 00:48:20;;;;;;;7.38;3.67;;;14.20;59.90;;;;;;4947983;28;20427;-79
2023/06/05 00:50:46;;;;;;;6.40;3.90;;;14.10;59.80;;;;;;4947675;28;20139;-78
2023/06/05 00:53:13;;;;;;;7.68;3.80;;;14.10;60.00;;;;;;4948274;28;20284;-78
2023/06/05 00:55:40;;;;;;;8.30;3.58;;;14.10;60.00;;;;;;4948121;28;20202;-78
2023/06/05 00:58:07;;;;;;;7.63;3.75;;;14.10;60.20;;;;;;4964079;28;20588;-78
2023/06/05 01:00:36;;;;;;;8.32;3.95;;;14.00;60.20;;;;;;4948273;28;20075;-78
2023/06/05 01:03:04;;;;;;;7.00;3.60;;;13.90;60.30;;;;;;4948011;28;20052;-78
2023/06/05 01:05:33;;;;;;;6.75;3.78;;;13.90;60.30;;;;;;4964068;28;20255;-78
2023/06/05 01:08:03;;;;;;;10.20;3.95;;;13.90;60.40;;;;;;4947483;28;20486;-78
2023/06/05 01:10:30;;;;;;;8.73;3.90;;;13.90;60.50;;;;;;4932404;28;20494;-79
2023/06/05 01:13:05;;;;;;;7.85;3.95;;;13.80;60.70;;;;;;4950012;28;20093;-78
2023/06/05 01:15:36;;;;;;;7.73;3.93;;;13.70;60.90;;;;;;4951988;28;20047;-78
2023/06/05 01:18:04;;;;;;;9.20;3.90;;;13.70;60.90;;;;;;4951015;28;20280;-78
2023/06/05 01:20:35;;;;;;;9.35;3.80;;;13.70;61.00;;;;;;4967253;28;20142;-79
2023/06/05 01:23:03;;;;;;;8.05;3.95;;;13.60;61.10;;;;;;4957160;28;20452;-78
2023/06/05 01:25:30;;;;;;;7.13;3.38;;;13.60;61.10;;;;;;4969731;28;20061;-78
2023/06/05 01:28:07;;;;;;;8.90;3.70;;;13.60;61.10;;;;;;4954174;28;20054;-79
2023/06/05 01:30:40;;;;;;;9.68;4.15;;;13.50;61.10;;;;;;4970393;28;20264;-79
2023/06/05 01:33:13;;;;;;;7.45;4.13;;;13.50;61.20;;;;;;4953081;28;20058;-79
2023/06/05 01:35:41;;;;;;;6.90;3.70;;;13.50;61.40;;;;;;4953868;28;20055;-78
2023/06/05 01:38:11;;;;;;;7.63;4.10;;;13.50;61.40;;;;;;4966659;28;20062;-79
2023/06/05 01:40:38;;;;;;;7.87;4.10;;;13.50;61.50;;;;;;4949534;28;20549;-78
2023/06/05 01:43:08;;;;;;;9.48;3.90;;;13.50;61.40;;;;;;4935480;28;20291;-79
2023/06/05 01:45:37;;;;;;;8.02;4.00;;;13.40;61.50;;;;;;4946760;28;20506;-79
2023/06/05 01:48:08;;;;;;;6.50;3.70;;;13.40;61.60;;;;;;4950118;28;20130;-78
2023/06/05 01:50:36;;;;;;;8.32;3.78;;;13.30;61.70;;;;;;4965102;28;20058;-78
2023/06/05 01:53:03;;;;;;;7.90;3.87;;;13.30;61.70;;;;;;4952192;28;20063;-79
2023/06/05 01:55:32;;;;;;;8.00;4.20;;;13.30;61.70;;;;;;4970243;28;20251;-79
2023/06/05 01:57:58;;;;;;;7.57;3.80;;;13.30;61.80;;;;;;4953796;28;20051;-78
2023/06/05 02:00:27;;;;;;;8.82;4.28;;;13.20;61.90;;;;;;4953647;28;20051;-79
2023/06/05 02:02:54;;;;;;;7.43;3.90;;;13.20;61.90;;;;;;4969528;28;20079;-78
2023/06/05 02:05:21;;;;;;;6.20;3.30;;;13.10;61.80;;;;;;4953957;28;20090;-78
2023/06/05 02:07:53;;;;;;;5.72;3.22;;;13.10;61.90;;;;;;4953759;28;20315;-79
2023/06/05 02:10:20;;;;;;;7.70;3.75;;;13.10;61.90;;;;;;4953471;28;20118;-78
2023/06/05 02:12:49;;;;;;;6.60;3.95;;;13.10;61.90;;;;;;4953310;28;20445;-79
2023/06/05 02:15:16;;;;;;;7.00;3.85;;;13.10;61.90;;;;;;4968413;28;20545;-79
2023/06/05 02:17:50;;;;;;;7.43;3.73;;;13.10;61.90;;;;;;4969443;28;20573;-78
2023/06/05 02:20:17;;;;;;;7.18;3.90;;;13.00;62.00;;;;;;4968828;28;20263;-79
2023/06/05 02:22:45;;;;;;;7.40;3.85;;;13.00;62.00;;;;;;4970125;28;20146;-78
2023/06/05 02:25:12;;;;;;;9.85;4.25;;;13.00;62.00;;;;;;4985920;28;20525;-79
2023/06/05 02:27:39;;;;;;;9.63;4.25;;;13.00;62.10;;;;;;5002111;28;20141;-79
2023/06/05 02:30:09;;;;;;;7.47;4.13;;;12.90;62.20;;;;;;5002217;28;20206;-79
2023/06/05 02:32:36;;;;;;;8.38;4.10;;;12.90;62.20;;;;;;4969131;28;20812;-79
2023/06/05 02:35:04;;;;;;;10.55;4.70;;;12.90;62.10;;;;;;4985244;28;20545;-78
2023/06/05 02:37:36;;;;;;;8.85;3.90;;;12.90;61.90;;;;;;4986268;28;20086;-78
2023/06/05 02:40:07;;;;;;;8.50;3.90;;;12.80;62.20;;;;;;4965151;28;20051;-79
2023/06/05 02:42:35;;;;;;;8.27;4.40;;;12.80;62.30;;;;;;4933360;28;20050;-78
2023/06/05 02:45:02;;;;;;;8.48;4.40;;;12.80;62.30;;;;;;4933071;28;20248;-78
2023/06/05 02:47:31;;;;;;;9.05;4.15;;;12.80;62.60;;;;;;4965015;28;20195;-78
2023/06/05 02:49:58;;;;;;;8.05;4.50;;;12.80;62.80;;;;;;4932374;28;20048;-78
2023/06/05 02:52:25;;;;;;;9.82;4.30;;;12.70;62.90;;;;;;4932112;28;20427;-78
2023/06/05 02:54:53;;;;;;;7.90;4.07;;;12.70;63.10;;;;;;4933715;28;20130;-79
2023/06/05 02:57:20;;;;;;;10.32;4.55;;;12.70;63.20;;;;;;4949868;28;20276;-78
2023/06/05 02:59:48;;;;;;;8.30;4.07;;;12.70;63.20;;;;;;4932342;28;20050;-79
2023/06/05 03:02:19;;;;;;;7.22;4.10;;;12.70;63.30;;;;;;4933147;28;20577;-79
2023/06/05 03:04:52;;;;;;;7.15;3.92;;;12.70;63.40;;;;;;4933677;28;20132;-78
2023/06/05 03:07:22;;;;;;;10.07;4.50;;;12.60;63.50;;;;;;4933191;28;20048;-79
2023/06/05 03:09:50;;;;;;;9.50;4.57;;;12.60;63.50;;;;;;4932890;28;20302;-78
2023/06/05 03:12:17;;;;;;;9.55;4.45;;;12.50;63.40;;;;;;4948667;28;20135;-78
2023/06/05 03:14:44;;;;;;;8.98;4.30;;;12.50;63.50;;;;;;4933424;28;20075;-78
2023/06/05 03:17:12;;;;;;;8.48;3.90;;;12.50;63.30;;;;;;4933356;28;20621;-78
2023/06/05 03:19:41;;;;;;;9.23;4.40;;;12.50;63.40;;;;;;4933165;28;20044;-78
2023/06/05 03:22:10;;;;;;;9.75;4.63;;;12.50;63.60;;;;;;4933514;28;20779;-78
2023/06/05 03:24:38;;;;;;;8.05;4.63;;;12.50;63.50;;;;;;4984448;28;20122;-79
2023/06/05 03:27:08;;;;;;;8.70;4.28;;;12.50;63.40;;;;;;4985176;28;20047;-78
2023/06/05 03:29:35;;;;;;;9.45;4.57;;;12.50;63.40;;;;;;4983824;28;20043;-78
2023/06/05 03:32:02;;;;;;;10.43;4.87;;;12.50;63.60;;;;;;4983277;28;20118;-78
2023/06/05 03:34:30;;;;;;;10.90;4.88;;;12.50;63.70;;;;;;4968033;28;20359;-79
2023/06/05 03:37:00;;;;;;;8.52;4.47;;;12.50;63.90;;;;;;4984177;28;20091;-78
2023/06/05 03:39:30;;;;;;;9.70;4.95;;;12.50;63.90;;;;;;4969240;28;20486;-79
2023/06/05 03:41:57;;;;;;;9.50;4.50;;;12.50;64.00;;;;;;4968563;28;20087;-79
2023/06/05 03:44:27;;;;;;;8.63;4.43;;;12.40;64.10;;;;;;4968422;28;20078;-79
2023/06/05 03:46:55;;;;;;;9.68;4.80;;;12.40;64.10;;;;;;4952371;28;20260;-79
2023/06/05 03:49:25;;;;;;;10.52;4.25;;;12.30;64.40;;;;;;4952182;28;20501;-78
2023/06/05 03:51:53;;;;;;;9.13;4.45;;;12.30;64.50;;;;;;4951762;28;20056;-78
2023/06/05 03:54:25;;;;;;;8.88;4.68;;;12.30;64.40;;;;;;4951543;28;20047;-78
2023/06/05 03:56:55;;;;;;;9.80;4.73;;;12.30;64.60;;;;;;4969071;28;20094;-78
2023/06/05 03:59:23;;;;;;;10.30;5.07;;;12.30;64.80;;;;;;4950905;28;20314;-79
2023/06/05 04:01:57;;;;;;;8.93;4.80;;;12.30;65.00;;;;;;4951607;28;20051;-78
2023/06/05 04:04:25;;;;;;;11.70;4.68;;;12.30;65.10;;;;;;4967772;28;20130;-79
2023/06/05 04:06:55;;;;;;;9.23;4.60;;;12.20;65.00;;;;;;4968142;28;20047;-79
2023/06/05 04:09:23;;;;;;;9.53;4.70;;;12.20;65.30;;;;;;4951707;28;20055;-78
2023/06/05 04:11:50;;;;;;;8.65;4.30;;;12.20;65.00;;;;;;4960821;28;20395;-79
2023/06/05 04:14:19;;;;;;;9.18;4.75;;;12.20;65.00;;;;;;4959667;28;20430;-79
2023/06/05 04:16:46;;;;;;;9.95;4.45;;;12.20;65.10;;;;;;4982094;28;20187;-78
2023/06/05 04:19:18;;;;;;;9.60;4.47;;;12.20;65.00;;;;;;4951212;28;20051;-79
2023/06/05 04:21:48;;;;;;;9.63;4.93;;;12.20;65.50;;;;;;4975368;28;20047;-78
2023/06/05 04:24:15;;;;;;;9.95;5.00;;;12.20;66.10;;;;;;4953340;28;20669;-79
2023/06/05 04:26:42;;;;;;;10.30;4.78;;;12.10;66.40;;;;;;4932506;28;20148;-78
2023/06/05 04:29:13;;;;;;;11.73;5.35;;;12.10;66.40;;;;;;4981005;28;20130;-79
2023/06/05 04:31:43;;;;;;;9.75;4.82;;;12.10;66.40;;;;;;4931777;28;20147;-79
2023/06/05 04:34:10;;;;;;;13.17;5.03;;;12.00;66.40;;;;;;4947050;28;20106;-79
2023/06/05 04:36:37;;;;;;;10.68;4.55;;;12.10;66.30;;;;;;4950921;28;20761;-79
2023/06/05 04:39:07;;;;;;;9.40;4.63;;;12.10;66.20;;;;;;4950823;28;20073;-79
2023/06/05 04:41:35;;;;;;;10.45;5.25;;;12.10;66.00;;;;;;4950723;28;20062;-78
2023/06/05 04:44:04;;;;;;;10.05;4.78;;;12.10;65.50;;;;;;4950672;28;20123;-79
2023/06/05 04:46:32;;;;;;;11.00;4.83;;;12.10;66.00;;;;;;4953465;28;20058;-79
2023/06/05 04:49:02;;;;;;;11.35;5.00;;;12.00;66.20;;;;;;4954693;28;20263;-79
2023/06/05 04:51:29;;;;;;;9.32;4.53;;;12.00;66.40;;;;;;4953276;28;20579;-80
2023/06/05 04:53:56;;;;;;;8.90;4.63;;;12.10;66.30;;;;;;4953561;28;20536;-80
2023/06/05 04:56:25;;;;;;;10.35;4.78;;;12.10;66.00;;;;;;4954208;28;20056;-79
2023/06/05 04:58:53;;;;;;;9.53;4.87;;;12.10;66.20;;;;;;4957327;28;20524;-80
2023/06/05 05:01:21;;;;;;;9.27;4.47;;;12.10;66.50;;;;;;4960016;28;20745;-80
2023/06/05 05:07:43;;;;;;;8.02;4.10;;;12.10;67.10;;;;;;4968517;28;20058;-80
2023/06/05 05:10:11;;;;;;;8.88;4.22;;;12.10;66.90;;;;;;4952341;28;20055;-80
2023/06/05 05:12:39;;;;;;;9.17;4.23;;;12.10;67.00;;;;;;4952929;28;20560;-80
2023/06/05 05:15:07;;;;;;;8.88;4.10;;;12.10;66.70;;;;;;4967798;28;20278;-80
2023/06/05 05:17:34;;;;;;;8.52;3.83;;;12.10;66.60;;;;;;4969365;28;20058;-80
2023/06/05 05:20:03;;;;;;;9.82;4.20;;;12.10;67.00;;;;;;4953415;28;20047;-79
2023/06/05 05:22:31;;;;;;;8.70;4.13;;;12.20;67.00;;;;;;4953181;28;20074;-80
2023/06/05 05:24:59;;;;;;;7.97;3.53;;;12.20;67.40;;;;;;4954524;28;20051;-80
2023/06/05 05:27:26;;;;;;;7.75;3.63;;;12.20;67.30;;;;;;4965214;28;20276;-80
2023/06/05 05:29:55;;;;;;;7.78;3.20;;;12.20;67.50;;;;;;4970246;28;20058;-80
2023/06/05 05:32:22;;;;;;;6.78;3.30;;;12.20;68.30;;;;;;4949990;28;20083;-80
2023/06/05 05:34:50;;;;;;;7.55;3.85;;;12.20;68.60;;;;;;4970220;28;20501;-80
2023/06/05 05:37:18;;;;;;;8.37;3.97;;;12.30;68.60;;;;;;4966087;28;20102;-80
2023/06/05 05:39:45;;;;;;;7.50;3.50;;;12.30;69.00;;;;;;4970325;28;20329;-80
2023/06/05 05:42:14;;;;;;;7.95;4.03;;;12.30;69.10;;;;;;4969778;28;20063;-80
2023/06/05 05:44:42;;;;;;;8.70;3.95;;;12.30;69.20;;;;;;4969881;28;20557;-80
2023/06/05 05:47:09;;;;;;;9.35;4.20;;;12.30;68.60;;;;;;4952913;28;20114;-80
2023/06/05 05:49:36;;;;;;;8.80;3.90;;;12.30;68.90;;;;;;4968330;28;20039;-77
2023/06/05 05:52:03;;;;;;;6.90;3.05;;;12.30;69.40;;;;;;4952215;28;20280;-84
2023/06/05 05:54:30;;;;;;;7.88;3.53;;;12.40;69.60;;;;;;4967596;28;20139;-80
2023/06/05 05:56:57;;;;;;;6.15;3.08;;;12.50;69.80;;;;;;4967435;28;20418;-80
2023/06/05 05:59:25;;;;;;;6.43;3.03;;;12.50;69.80;;;;;;4966646;28;20055;-80
2023/06/05 06:01:52;;;;;;;8.30;3.33;;;12.50;70.10;;;;;;4963763;28;20083;-80
2023/06/05 06:04:19;;;;;;;8.73;3.95;;;12.50;70.30;;;;;;4961010;28;20263;-82
2023/06/05 06:06:52;;;;;;;7.75;3.55;;;12.50;70.30;;;;;;4953514;28;20911;-81
2023/06/05 06:09:19;;;;;;;6.78;2.88;;;12.50;70.40;;;;;;4953204;28;20078;-85
2023/06/05 06:11:46;;;;;;;6.38;2.97;;;12.50;70.50;;;;;;4979300;28;20835;-85
2023/06/05 06:14:14;;;;;;;6.77;3.50;;;12.60;70.30;;;;;;4963769;28;20092;-83
2023/06/05 06:16:43;;;;;;;6.68;3.03;;;12.70;70.20;;;;;;4954807;28;21305;-84
2023/06/05 06:19:14;;;;;;;7.80;3.30;;;12.70;70.80;;;;;;4964339;28;20615;-83
2023/06/05 06:21:41;;;;;;;6.57;3.08;;;12.80;70.90;;;;;;4968571;28;20050;-82
2023/06/05 06:24:08;;;;;;;6.32;3.10;;;12.80;71.00;;;;;;4967409;28;20166;-81
2023/06/05 06:26:37;;;;;;;7.13;3.40;;;12.90;70.80;;;;;;4962344;28;20056;-81
2023/06/05 06:29:04;;;;;;;7.82;3.65;;;12.90;71.10;;;;;;4953169;28;20279;-80
2023/06/05 06:31:31;;;;;;;6.55;3.40;;;13.00;71.20;;;;;;4952403;28;20071;-80
2023/06/05 06:34:00;;;;;;;6.43;3.63;;;13.00;71.20;;;;;;4958311;28;20059;-80
2023/06/05 06:36:27;;;;;;;6.50;3.25;;;13.10;71.00;;;;;;4962036;28;20106;-81
2023/06/05 06:38:54;;;;;;;7.23;3.73;;;13.10;71.10;;;;;;4971399;28;20056;-82
2023/06/05 06:41:22;;;;;;;7.13;3.20;;;13.10;71.10;;;;;;4953529;28;21307;-82
2023/06/05 06:43:49;;;;;;;7.82;3.50;;;13.20;71.00;;;;;;4969254;28;20055;-82
2023/06/05 06:46:16;;;;;;;6.85;3.20;;;13.30;70.40;;;;;;4970000;28;20055;-82
2023/06/05 06:48:44;;;;;;;6.25;2.97;;;13.30;70.30;;;;;;4968814;28;20043;-82
2023/06/05 06:51:13;;;;;;;6.40;3.27;;;13.40;70.40;;;;;;4968571;28;20051;-82
2023/06/05 06:53:40;;;;;;;7.47;3.60;;;13.50;70.30;;;;;;4968828;28;20331;-82
2023/06/05 06:56:08;;;;;;;6.35;3.17;;;13.50;70.00;;;;;;4970436;28;20047;-79
2023/06/05 06:58:36;;;;;;;14.70;3.97;;;13.60;70.20;;;;;;4968207;28;20628;-80
2023/06/05 07:01:04;;;;;;;6.35;3.00;;;13.60;70.50;;;;;;4959507;28;20081;-86
2023/06/05 07:03:31;;;;;;;7.67;2.83;;;13.70;70.50;;;;;;4968706;28;20055;-80
2023/06/05 07:05:59;;;;;;;5.68;2.90;;;13.80;70.30;;;;;;4964720;28;20309;-79
2023/06/05 07:08:27;;;;;;;4.82;2.33;;;13.90;70.10;;;;;;4968323;28;20105;-86
2023/06/05 07:10:55;;;;;;;5.07;2.45;;;13.90;70.00;;;;;;4968215;28;20320;-82
2023/06/05 07:13:22;;;;;;;5.70;2.00;;;14.00;70.20;;;;;;4966154;28;20051;-80
2023/06/05 07:15:50;;;;;;;4.60;2.10;;;14.10;70.30;;;;;;4963369;28;20059;-84
2023/06/05 07:18:19;;;;;;;5.90;2.10;;;14.10;70.30;;;;;;4967155;28;20283;-81
2023/06/05 07:20:46;;;;;;;5.60;2.65;;;14.20;70.20;;;;;;4960108;28;20111;-75
2023/06/05 07:23:14;;;;;;;6.60;2.28;;;14.30;70.00;;;;;;4963292;28;20063;-76
2023/06/05 07:25:42;;;;;;;5.28;2.20;;;14.30;69.90;;;;;;4968684;28;20134;-84
2023/06/05 07:28:11;;;;;;;5.63;2.33;;;14.40;69.70;;;;;;4966645;28;20822;-84
2023/06/05 07:30:38;;;;;;;5.88;2.20;;;14.50;69.50;;;;;;4949090;28;20366;-78
2023/06/05 07:33:05;;;;;;;4.20;1.90;;;14.50;69.20;;;;;;4967711;28;20055;-76
2023/06/05 07:35:32;;;;;;;4.68;1.90;;;14.60;69.00;;;;;;4966313;28;20498;-80
2023/06/05 07:37:59;;;;;;;6.32;2.10;;;14.70;69.00;;;;;;4965128;28;20063;-80
2023/06/05 07:40:26;;;;;;;5.77;2.33;;;14.80;68.90;;;;;;4969538;28;20051;-79
2023/06/05 07:42:55;;;;;;;6.25;1.85;;;14.80;68.80;;;;;;4968321;28;20251;-81
2023/06/05 07:45:22;;;;;;;4.55;1.80;;;14.90;68.60;;;;;;4949666;28;20095;-86
2023/06/05 07:47:50;;;;;;;4.35;2.25;;;15.00;68.50;;;;;;4952451;28;20663;-86
2023/06/05 07:50:17;;;;;;;4.68;2.22;;;15.00;68.30;;;;;;4954089;28;20145;-84
2023/06/05 07:52:44;;;;;;;9.03;2.17;;;15.10;68.10;;;;;;4952691;28;20075;-82
2023/06/05 07:55:11;;;;;;;4.78;2.25;;;15.20;68.00;;;;;;4969207;28;20262;-88
2023/06/05 07:57:38;;;;;;;6.65;2.45;;;15.20;68.00;;;;;;4953778;28;20081;-82
2023/06/05 08:00:10;;;;;;;4.50;1.90;;;15.30;67.60;;;;;;4968116;28;22180;-80
2023/06/05 08:02:40;;;;;;;5.85;2.50;;;15.40;67.50;;;;;;4958936;28;20051;-78
2023/06/05 08:05:08;;;;;;;6.83;2.60;;;15.50;67.50;;;;;;4962039;28;20055;-84
2023/06/05 08:07:35;;;;;;;4.93;2.10;;;15.50;67.10;;;;;;4968686;28;20267;-83
2023/06/05 08:10:02;;;;;;;4.85;2.20;;;15.60;66.90;;;;;;4952785;28;20063;-83
2023/06/05 08:12:29;;;;;;;5.20;1.80;;;15.60;66.80;;;;;;4968764;28;20119;-82
2023/06/05 08:14:57;;;;;;;4.43;1.80;;;15.60;66.40;;;;;;4968314;28;20062;-80
2023/06/05 08:17:25;;;;;;;3.50;1.57;;;15.70;66.50;;;;;;4968191;28;20495;-80
2023/06/05 08:19:52;;;;;;;4.00;1.70;;;15.80;66.50;;;;;;4968736;28;20306;-88
2023/06/05 08:22:19;;;;;;;5.38;2.00;;;15.80;66.40;;;;;;4962604;28;20142;-83
2023/06/05 08:24:48;;;;;;;5.07;2.35;;;15.90;66.30;;;;;;4967983;28;20508;-81
2023/06/05 08:27:15;;;;;;;4.63;1.98;;;16.00;66.50;;;;;;4968377;28;20706;-85
2023/06/05 08:29:42;;;;;;;5.23;2.37;;;16.00;66.20;;;;;;4967921;28;20170;-83
2023/06/05 08:32:09;;;;;;;4.40;1.80;;;16.00;66.10;;;;;;4966403;28;20434;-77
2023/06/05 08:34:38;;;;;;;4.82;1.90;;;16.10;66.00;;;;;;4950816;28;20059;-81
2023/06/05 08:37:05;;;;;;;6.60;1.85;;;16.10;65.90;;;;;;4947412;28;20596;-80
2023/06/05 08:39:33;;;;;;;5.30;2.40;;;16.20;65.70;;;;;;4975140;28;20179;-78
2023/06/05 08:42:03;;;;;;;4.27;1.90;;;16.20;65.50;;;;;;4965729;28;20055;-77
2023/06/05 08:44:30;;;;;;;6.13;2.85;;;16.30;65.30;;;;;;4961721;28;20722;-77
2023/06/05 08:47:01;;;;;;;6.30;1.83;;;16.40;65.10;;;;;;4965509;28;20452;-77
2023/06/05 08:49:30;;;;;;;4.40;1.27;;;16.40;64.80;;;;;;4966946;28;20051;-76
2023/06/05 08:52:04;;;;;;;5.50;2.38;;;16.50;64.70;;;;;;4968935;28;20062;-79
2023/06/05 08:54:35;;;;;;;5.43;2.33;;;16.50;64.40;;;;;;4969028;28;20114;-78
2023/06/05 08:57:04;;;;;;;5.15;1.90;;;16.50;64.50;;;;;;4964177;28;20260;-78
2023/06/05 08:59:32;;;;;;;5.22;1.63;;;16.60;64.40;;;;;;4962970;28;20162;-79
2023/06/05 09:01:59;;;;;;;4.47;1.70;;;16.60;64.40;;;;;;4955784;28;20050;-82
2023/06/05 09:04:29;;;;;;;6.35;2.55;;;16.70;64.50;;;;;;4967271;28;20054;-81
2023/06/05 09:06:57;;;;;;;4.73;2.67;;;16.70;64.60;;;;;;4951239;28;20054;-80
2023/06/05 09:09:26;;;;;;;6.03;2.60;;;16.80;64.40;;;;;;4969657;28;20303;-81
2023/06/05 09:12:03;;;;;;;4.18;1.88;;;16.80;63.90;;;;;;4958955;28;20058;-80
2023/06/05 09:14:32;;;;;;;5.32;1.90;;;16.90;63.30;;;;;;4954523;28;20050;-81
2023/06/05 09:17:00;;;;;;;3.72;1.60;;;16.90;63.40;;;;;;4959557;28;21018;-81
2023/06/05 09:19:37;;;;;;;5.27;1.90;;;16.90;63.40;;;;;;4966936;28;20055;-81
2023/06/05 09:22:05;;;;;;;4.43;1.63;;;17.00;63.30;;;;;;4964664;28;20342;-80
2023/06/05 09:24:34;;;;;;;3.83;1.60;;;17.00;63.20;;;;;;4960705;28;20795;-78
2023/06/05 09:27:05;;;;;;;4.43;1.88;;;17.00;62.90;;;;;;4973535;28;20541;-78
2023/06/05 09:29:34;;;;;;;3.65;1.80;;;17.20;63.00;;;;;;4959274;28;20058;-80
2023/06/05 09:32:02;;;;;;;4.07;1.60;;;17.20;63.00;;;;;;4949072;28;20130;-80
2023/06/05 09:34:31;;;;;;;7.38;2.25;;;17.20;63.00;;;;;;4951589;28;20765;-80
2023/06/05 09:36:59;;;;;;;4.97;2.30;;;17.30;62.90;;;;;;4969137;28;20612;-80
2023/06/05 09:39:27;;;;;;;4.95;2.08;;;17.40;62.60;;;;;;4967076;28;20067;-80
2023/06/05 09:41:57;;;;;;;5.03;1.98;;;17.50;62.60;;;;;;4981437;28;20051;-83
2023/06/05 09:44:26;;;;;;;4.43;2.00;;;17.50;62.40;;;;;;4979516;28;20087;-85
2023/06/05 09:46:55;;;;;;;5.75;2.15;;;17.50;62.30;;;;;;4961905;28;20291;-84
2023/06/05 09:49:26;;;;;;;4.70;2.00;;;17.60;62.10;;;;;;4942666;28;20059;-85
2023/06/05 09:51:56;;;;;;;4.18;1.95;;;17.60;61.90;;;;;;4951222;28;20058;-85
2023/06/05 09:54:27;;;;;;;4.22;1.83;;;17.70;62.20;;;;;;4985279;28;20954;-86
2023/06/05 09:56:59;;;;;;;4.37;1.80;;;17.80;62.30;;;;;;4971759;28;20855;-85
2023/06/05 09:59:31;;;;;;;5.45;2.00;;;17.80;62.20;;;;;;4960490;28;20425;-84
2023/06/05 10:02:01;;;;;;;4.60;2.30;;;17.80;62.10;;;;;;4953490;28;20058;-86
2023/06/05 10:04:30;;;;;;;7.03;2.20;;;17.90;62.00;;;;;;4968096;28;20823;-86
2023/06/05 10:07:01;;;;;;;4.50;1.80;;;18.00;62.00;;;;;;4963776;28;20274;-86
2023/06/05 10:09:32;;;;;;;4.70;1.97;;;18.00;61.70;;;;;;4962625;28;20051;-86
2023/06/05 10:12:04;;;;;;;9.80;2.25;;;18.10;62.00;;;;;;4995029;28;20245;-89
2023/06/05 10:14:31;;;;;;;4.63;2.03;;;18.10;61.80;;;;;;4955144;28;20066;-88
2023/06/05 10:16:59;;;;;;;4.30;1.80;;;18.20;61.70;;;;;;4956574;28;20118;-90
2023/06/05 10:19:26;;;;;;;5.25;2.17;;;18.20;61.90;;;;;;4969120;28;20062;-89
2023/06/05 10:21:53;;;;;;;6.60;2.40;;;18.30;61.80;;;;;;4969838;28;20133;-88
2023/06/05 10:24:25;;;;;;;4.45;2.17;;;18.30;61.90;;;;;;4970650;28;20297;-87
2023/06/05 10:27:20;;;;;;;5.63;2.17;;;18.40;61.60;;;;;;4969891;28;20127;-87
2023/06/05 10:30:14;;;;;;;4.97;1.77;;;18.50;61.30;;;;;;4971769;28;20067;-88
2023/06/05 10:32:52;;;;;;;4.43;2.03;;;18.60;61.00;;;;;;4956417;28;20059;-90
2023/06/05 10:35:35;;;;;;;5.37;2.17;;;18.60;61.10;;;;;;4955798;28;21094;-87
2023/06/05 10:38:13;;;;;;;6.32;2.28;;;18.70;61.10;;;;;;4951586;28;20247;-87
2023/06/05 10:40:40;;;;;;;5.47;2.10;;;18.80;61.10;;;;;;4965922;28;20062;-83
2023/06/05 10:43:31;;;;;;;16.70;2.78;;;18.80;60.90;;;;;;4967149;28;20066;-84
2023/06/05 10:45:59;;;;;;;6.10;1.92;;;18.90;60.70;;;;;;4978419;28;20055;-88
2023/06/05 10:49:04;;;;;;;5.37;2.17;;;19.00;60.50;;;;;;4966184;28;20130;-85
2023/06/05 10:51:37;;;;;;;5.50;2.40;;;19.10;60.70;;;;;;4968848;28;20305;-83
2023/06/05 10:54:05;;;;;;;4.55;2.20;;;19.20;59.60;;;;;;4966626;28;20055;-85
2023/06/05 10:56:59;;;;;;;5.20;2.10;;;19.20;59.30;;;;;;4982300;28;20051;-87
2023/06/05 10:59:30;;;;;;;5.03;2.35;;;19.30;58.90;;;;;;4988269;28;20047;-87
2023/06/05 11:02:25;;;;;;;5.73;2.10;;;19.40;59.20;;;;;;4979130;28;20059;-85
2023/06/05 11:05:10;;;;;;;5.10;2.40;;;19.40;59.50;;;;;;4926008;28;20287;-88
2023/06/05 11:07:39;;;;;;;5.07;2.28;;;19.50;59.10;;;;;;4962360;28;20050;-87
2023/06/05 11:10:15;;;;;;;4.75;2.25;;;19.50;58.60;;;;;;4968680;28;20055;-87
2023/06/05 11:12:59;;;;;;;6.03;2.20;;;19.60;58.70;;;;;;4953566;28;20059;-85
2023/06/05 11:15:42;;;;;;;5.13;2.10;;;19.70;58.60;;;;;;4985777;28;20051;-85
2023/06/05 11:18:33;;;;;;;5.30;2.50;;;19.70;58.10;;;;;;4983194;28;20284;-88
2023/06/05 11:21:04;;;;;;;5.70;2.53;;;19.70;58.30;;;;;;4954371;28;20138;-88
2023/06/05 11:23:31;;;;;;;6.50;2.30;;;19.90;57.90;;;;;;4972934;28;20078;-87
2023/06/05 11:26:21;;;;;;;4.72;2.20;;;19.90;57.40;;;;;;4971152;28;20057;-87
2023/06/05 11:28:48;;;;;;;5.03;2.13;;;20.00;57.30;;;;;;4950586;28;20055;-89
2023/06/05 11:31:30;;;;;;;5.38;2.33;;;20.00;57.40;;;;;;4970714;28;20356;-86
2023/06/05 11:33:58;;;;;;;5.90;2.40;;;20.10;57.30;;;;;;4968898;28;20055;-88
2023/06/05 11:36:25;;;;;;;7.07;2.63;;;20.20;57.30;;;;;;4958366;28;20061;-88
2023/06/05 11:38:55;;;;;;;4.68;2.10;;;20.30;57.80;;;;;;4970937;28;20055;-88
2023/06/05 11:41:24;;;;;;;6.23;2.63;;;20.30;57.30;;;;;;4970305;28;20521;-87
2023/06/05 11:43:52;;;;;;;6.32;2.38;;;20.50;56.90;;;;;;4970882;28;21273;-89
2023/06/05 11:46:37;;;;;;;6.55;2.33;;;20.50;56.30;;;;;;4957887;28;20055;-87
2023/06/05 11:49:04;;;;;;;5.97;2.72;;;20.50;56.90;;;;;;4968340;28;20051;-88
2023/06/05 11:51:33;;;;;;;4.97;2.20;;;20.60;57.10;;;;;;4956144;28;20048;-89
2023/06/05 11:54:01;;;;;;;4.30;2.30;;;20.70;56.30;;;;;;4953941;28;20063;-90
2023/06/05 11:56:29;;;;;;;6.95;3.05;;;20.80;56.20;;;;;;4953302;28;20268;-89
2023/06/05 11:58:56;;;;;;;5.53;2.90;;;20.90;56.00;;;;;;4953192;28;20135;-89
2023/06/05 12:01:31;;;;;;;4.93;2.45;;;20.90;55.40;;;;;;4969738;28;20144;-90
2023/06/05 12:04:06;;;;;;;5.57;2.90;;;21.00;55.40;;;;;;4952890;28;20067;-86
2023/06/05 12:06:34;;;;;;;5.37;2.50;;;21.00;55.70;;;;;;4954367;28;20053;-89
2023/06/05 12:09:11;;;;;;;4.65;2.42;;;21.10;55.50;;;;;;4961459;28;20362;-88
2023/06/05 12:11:39;;;;;;;6.60;2.50;;;21.10;55.70;;;;;;4985472;28;20055;-87
2023/06/05 12:14:07;;;;;;;5.03;2.20;;;21.30;55.30;;;;;;4975817;28;20145;-87
2023/06/05 12:16:37;;;;;;;6.78;2.40;;;21.30;55.70;;;;;;4952793;28;20055;-90
2023/06/05 12:19:13;;;;;;;4.83;2.17;;;21.40;55.60;;;;;;4956608;28;20701;-89
2023/06/05 12:21:40;;;;;;;4.53;2.40;;;21.50;56.00;;;;;;4971532;28;20943;-89
2023/06/05 12:24:07;;;;;;;5.82;2.40;;;21.60;55.10;;;;;;4958918;28;20059;-91
2023/06/05 12:26:53;;;;;;;4.68;2.33;;;21.70;55.00;;;;;;4952953;28;20051;-90
2023/06/05 12:29:22;;;;;;;4.68;2.08;;;21.70;54.40;;;;;;4974465;28;20052;-91
2023/06/05 12:31:53;;;;;;;4.50;2.60;;;21.80;54.60;;;;;;4957453;28;20102;-89
2023/06/05 12:34:56;;;;;;;4.25;2.15;;;21.90;54.20;;;;;;4956969;28;20318;-92
2023/06/05 12:37:25;;;;;;;5.28;2.33;;;21.90;55.00;;;;;;4942468;28;20470;-88
2023/06/05 12:39:52;;;;;;;5.70;2.63;;;22.00;54.50;;;;;;4955692;28;20081;-88
2023/06/05 12:42:24;;;;;;;6.32;2.60;;;22.10;54.10;;;;;;4985016;28;20078;-84
2023/06/05 12:45:02;;;;;;;4.70;2.23;;;22.20;54.20;;;;;;4976195;28;20058;-89
2023/06/05 12:47:38;;;;;;;4.93;2.35;;;22.20;54.00;;;;;;4948037;28;20726;-90
2023/06/05 12:50:23;;;;;;;5.00;2.42;;;22.30;53.60;;;;;;4966013;28;20142;-88
2023/06/05 12:52:55;;;;;;;5.03;2.33;;;22.50;54.40;;;;;;4967938;28;20126;-89
2023/06/05 12:55:22;;;;;;;5.18;2.22;;;22.50;53.60;;;;;;4970694;28;20052;-88
2023/06/05 12:57:54;;;;;;;4.63;2.20;;;22.60;53.90;;;;;;4940006;28;20059;-91
2023/06/05 13:00:22;;;;;;;4.90;2.20;;;22.60;54.50;;;;;;4968548;28;20264;-89
2023/06/05 13:02:51;;;;;;;7.90;2.90;;;22.80;53.30;;;;;;4937140;28;20115;-88